sensor_id;sensor_type;location;lat;lon;timestamp;temperature;humidity
26224;DHT22;14820;48.682;8.890;2022-08-19T00:02:04;20.00;99.90
26224;DHT22;14820;48.682;8.890;2022-08-19T00:04:33;20.00;99.90
26224;DHT22;14820;48.682;8.890;2022-08-19T00:07:04;20.00;99.90
26224;DHT22;14820;48.682;8.890;2022-08-19T00:09:30;20.00;99.90
26224;DHT22;14820;48.682;8.890;2022-08-19T00:11:57;20.00;99.90
26224;DHT22;14820;48.682;8.890;2022-08-19T00:14:24;20.00;99.90
26224;DHT22;14820;48.682;8.890;2022-08-19T00:16:50;20.00;99.90
26224;DHT22;14820;48.682;8.890;2022-08-19T00:19:20;20.00;99.90
26224;DHT22;14820;48.682;8.890;2022-08-19T00:21:46;20.00;99.90
26224;DHT22;14820;48.682;8.890;2022-08-19T00:24:14;19.90;99.90
26224;DHT22;14820;48.682;8.890;2022-08-19T00:26:42;20.00;99.90
26224;DHT22;14820;48.682;8.890;2022-08-19T00:29:10;19.90;99.90
26224;DHT22;14820;48.682;8.890;2022-08-19T00:31:37;20.00;99.90
26224;DHT22;14820;48.682;8.890;2022-08-19T00:34:03;20.00;99.90
26224;DHT22;14820;48.682;8.890;2022-08-19T00:36:29;19.90;99.90
26224;DHT22;14820;48.682;8.890;2022-08-19T00:38:55;20.00;99.90
26224;DHT22;14820;48.682;8.890;2022-08-19T00:41:23;19.90;99.90
26224;DHT22;14820;48.682;8.890;2022-08-19T00:46:23;19.90;99.90
26224;DHT22;14820;48.682;8.890;2022-08-19T00:48:49;19.90;99.90
26224;DHT22;14820;48.682;8.890;2022-08-19T00:51:15;19.80;99.90
26224;DHT22;14820;48.682;8.890;2022-08-19T00:53:41;19.90;99.90
26224;DHT22;14820;48.682;8.890;2022-08-19T00:56:09;19.80;99.90
26224;DHT22;14820;48.682;8.890;2022-08-19T00:58:36;19.80;99.90
26224;DHT22;14820;48.682;8.890;2022-08-19T01:01:03;19.80;99.90
26224;DHT22;14820;48.682;8.890;2022-08-19T01:03:29;19.80;99.90
26224;DHT22;14820;48.682;8.890;2022-08-19T01:05:55;19.80;99.90
26224;DHT22;14820;48.682;8.890;2022-08-19T01:08:21;19.80;99.90
26224;DHT22;14820;48.682;8.890;2022-08-19T01:10:53;19.70;99.90
26224;DHT22;14820;48.682;8.890;2022-08-19T01:13:21;19.70;99.90
26224;DHT22;14820;48.682;8.890;2022-08-19T01:16:08;19.70;99.90
26224;DHT22;14820;48.682;8.890;2022-08-19T01:18:40;19.70;99.90
26224;DHT22;14820;48.682;8.890;2022-08-19T01:23:45;19.70;99.90
26224;DHT22;14820;48.682;8.890;2022-08-19T01:26:20;19.60;99.90
26224;DHT22;14820;48.682;8.890;2022-08-19T01:28:48;19.60;99.90
26224;DHT22;14820;48.682;8.890;2022-08-19T01:31:20;19.70;99.90
26224;DHT22;14820;48.682;8.890;2022-08-19T01:33:48;19.60;99.90
26224;DHT22;14820;48.682;8.890;2022-08-19T01:36:38;19.70;99.90
26224;DHT22;14820;48.682;8.890;2022-08-19T01:39:06;19.60;99.90
26224;DHT22;14820;48.682;8.890;2022-08-19T01:41:33;19.60;99.90
26224;DHT22;14820;48.682;8.890;2022-08-19T01:43:59;19.60;99.90
26224;DHT22;14820;48.682;8.890;2022-08-19T01:46:26;19.60;99.90
26224;DHT22;14820;48.682;8.890;2022-08-19T01:48:52;19.50;99.90
26224;DHT22;14820;48.682;8.890;2022-08-19T01:51:17;19.50;99.90
26224;DHT22;14820;48.682;8.890;2022-08-19T01:53:47;19.50;99.90
26224;DHT22;14820;48.682;8.890;2022-08-19T01:56:13;19.50;99.90
26224;DHT22;14820;48.682;8.890;2022-08-19T01:58:44;19.50;99.90
26224;DHT22;14820;48.682;8.890;2022-08-19T02:01:13;19.50;99.90
26224;DHT22;14820;48.682;8.890;2022-08-19T02:03:39;19.50;99.90
26224;DHT22;14820;48.682;8.890;2022-08-19T02:06:05;19.50;99.90
26224;DHT22;14820;48.682;8.890;2022-08-19T02:08:33;19.40;99.90
26224;DHT22;14820;48.682;8.890;2022-08-19T02:10:59;19.40;99.90
26224;DHT22;14820;48.682;8.890;2022-08-19T02:13:26;19.40;99.90
26224;DHT22;14820;48.682;8.890;2022-08-19T02:15:52;19.40;99.90
26224;DHT22;14820;48.682;8.890;2022-08-19T02:18:18;19.40;99.90
26224;DHT22;14820;48.682;8.890;2022-08-19T02:20:44;19.40;99.90
26224;DHT22;14820;48.682;8.890;2022-08-19T02:23:11;19.40;99.90
26224;DHT22;14820;48.682;8.890;2022-08-19T02:25:37;19.40;99.90
26224;DHT22;14820;48.682;8.890;2022-08-19T02:28:04;19.40;99.90
26224;DHT22;14820;48.682;8.890;2022-08-19T02:30:29;19.30;99.90
26224;DHT22;14820;48.682;8.890;2022-08-19T02:32:56;19.30;99.90
26224;DHT22;14820;48.682;8.890;2022-08-19T02:35:22;19.40;99.90
26224;DHT22;14820;48.682;8.890;2022-08-19T02:37:48;19.30;99.90
26224;DHT22;14820;48.682;8.890;2022-08-19T02:40:33;19.30;99.90
26224;DHT22;14820;48.682;8.890;2022-08-19T02:43:06;19.30;99.90
26224;DHT22;14820;48.682;8.890;2022-08-19T02:45:34;19.40;99.90
26224;DHT22;14820;48.682;8.890;2022-08-19T02:48:02;19.30;99.90
26224;DHT22;14820;48.682;8.890;2022-08-19T02:50:28;19.30;99.90
26224;DHT22;14820;48.682;8.890;2022-08-19T02:52:54;19.30;99.90
26224;DHT22;14820;48.682;8.890;2022-08-19T02:55:19;19.30;99.90
26224;DHT22;14820;48.682;8.890;2022-08-19T02:57:46;19.30;99.90
26224;DHT22;14820;48.682;8.890;2022-08-19T03:00:12;19.30;99.90
26224;DHT22;14820;48.682;8.890;2022-08-19T03:02:39;19.30;99.90
26224;DHT22;14820;48.682;8.890;2022-08-19T03:05:06;19.30;99.90
26224;DHT22;14820;48.682;8.890;2022-08-19T03:07:32;19.30;99.90
26224;DHT22;14820;48.682;8.890;2022-08-19T03:09:58;19.20;99.90
26224;DHT22;14820;48.682;8.890;2022-08-19T03:12:23;19.20;99.90
26224;DHT22;14820;48.682;8.890;2022-08-19T03:14:49;19.20;99.90
26224;DHT22;14820;48.682;8.890;2022-08-19T03:17:16;19.10;99.90
26224;DHT22;14820;48.682;8.890;2022-08-19T03:19:42;19.10;99.90
26224;DHT22;14820;48.682;8.890;2022-08-19T03:22:08;19.10;99.90
26224;DHT22;14820;48.682;8.890;2022-08-19T03:24:34;19.10;99.90
26224;DHT22;14820;48.682;8.890;2022-08-19T03:27:00;19.10;99.90
26224;DHT22;14820;48.682;8.890;2022-08-19T03:29:27;19.10;99.90
26224;DHT22;14820;48.682;8.890;2022-08-19T03:31:53;19.10;99.90
26224;DHT22;14820;48.682;8.890;2022-08-19T03:34:25;19.10;99.90
26224;DHT22;14820;48.682;8.890;2022-08-19T03:36:55;19.10;99.90
26224;DHT22;14820;48.682;8.890;2022-08-19T03:39:23;19.10;99.90
26224;DHT22;14820;48.682;8.890;2022-08-19T03:41:50;19.10;99.90
26224;DHT22;14820;48.682;8.890;2022-08-19T03:44:19;19.10;99.90
26224;DHT22;14820;48.682;8.890;2022-08-19T03:46:54;19.10;99.90
26224;DHT22;14820;48.682;8.890;2022-08-19T03:49:29;19.10;99.90
26224;DHT22;14820;48.682;8.890;2022-08-19T03:51:57;19.00;99.90
26224;DHT22;14820;48.682;8.890;2022-08-19T03:54:24;19.00;99.90
26224;DHT22;14820;48.682;8.890;2022-08-19T03:56:52;19.00;99.90
26224;DHT22;14820;48.682;8.890;2022-08-19T03:59:31;19.00;99.90
26224;DHT22;14820;48.682;8.890;2022-08-19T04:01:58;19.00;99.90
26224;DHT22;14820;48.682;8.890;2022-08-19T04:04:25;19.00;99.90
26224;DHT22;14820;48.682;8.890;2022-08-19T04:06:51;19.00;99.90
26224;DHT22;14820;48.682;8.890;2022-08-19T04:09:18;18.90;99.90
26224;DHT22;14820;48.682;8.890;2022-08-19T04:11:48;19.00;99.90
26224;DHT22;14820;48.682;8.890;2022-08-19T04:14:18;19.00;99.90
26224;DHT22;14820;48.682;8.890;2022-08-19T04:16:45;19.00;99.90
26224;DHT22;14820;48.682;8.890;2022-08-19T04:19:12;19.00;99.90
26224;DHT22;14820;48.682;8.890;2022-08-19T04:21:38;19.00;99.90
26224;DHT22;14820;48.682;8.890;2022-08-19T04:24:04;19.00;99.90
26224;DHT22;14820;48.682;8.890;2022-08-19T04:26:34;18.90;99.90
26224;DHT22;14820;48.682;8.890;2022-08-19T04:29:11;18.90;99.90
26224;DHT22;14820;48.682;8.890;2022-08-19T04:31:38;18.90;99.90
26224;DHT22;14820;48.682;8.890;2022-08-19T04:34:08;18.90;99.90
26224;DHT22;14820;48.682;8.890;2022-08-19T04:36:37;18.90;99.90
26224;DHT22;14820;48.682;8.890;2022-08-19T04:39:09;18.90;99.90
26224;DHT22;14820;48.682;8.890;2022-08-19T04:41:35;18.90;99.90
26224;DHT22;14820;48.682;8.890;2022-08-19T04:44:20;18.90;99.90
26224;DHT22;14820;48.682;8.890;2022-08-19T04:46:48;18.90;99.90
26224;DHT22;14820;48.682;8.890;2022-08-19T04:49:15;18.90;99.90
26224;DHT22;14820;48.682;8.890;2022-08-19T04:51:43;18.90;99.90
26224;DHT22;14820;48.682;8.890;2022-08-19T04:54:10;18.90;99.90
26224;DHT22;14820;48.682;8.890;2022-08-19T04:56:35;18.90;99.90
26224;DHT22;14820;48.682;8.890;2022-08-19T04:59:01;18.90;99.90
26224;DHT22;14820;48.682;8.890;2022-08-19T05:01:31;18.90;99.90
26224;DHT22;14820;48.682;8.890;2022-08-19T05:03:59;18.90;99.90
26224;DHT22;14820;48.682;8.890;2022-08-19T05:06:26;18.90;99.90
26224;DHT22;14820;48.682;8.890;2022-08-19T05:08:52;18.90;99.90
26224;DHT22;14820;48.682;8.890;2022-08-19T05:11:21;18.90;99.90
26224;DHT22;14820;48.682;8.890;2022-08-19T05:13:47;18.90;99.90
26224;DHT22;14820;48.682;8.890;2022-08-19T05:16:16;18.90;99.90
26224;DHT22;14820;48.682;8.890;2022-08-19T05:18:42;18.90;99.90
26224;DHT22;14820;48.682;8.890;2022-08-19T05:21:27;18.90;99.90
26224;DHT22;14820;48.682;8.890;2022-08-19T05:24:13;18.90;99.90
26224;DHT22;14820;48.682;8.890;2022-08-19T05:26:41;19.00;99.90
26224;DHT22;14820;48.682;8.890;2022-08-19T05:29:08;18.90;99.90
26224;DHT22;14820;48.682;8.890;2022-08-19T05:31:35;18.90;99.90
26224;DHT22;14820;48.682;8.890;2022-08-19T05:34:02;18.90;99.90
26224;DHT22;14820;48.682;8.890;2022-08-19T05:36:34;18.90;99.90
26224;DHT22;14820;48.682;8.890;2022-08-19T05:39:02;18.90;99.90
26224;DHT22;14820;48.682;8.890;2022-08-19T05:41:29;19.00;99.90
26224;DHT22;14820;48.682;8.890;2022-08-19T05:44:01;18.90;99.90
26224;DHT22;14820;48.682;8.890;2022-08-19T05:46:27;19.00;99.90
26224;DHT22;14820;48.682;8.890;2022-08-19T05:48:53;19.00;99.90
26224;DHT22;14820;48.682;8.890;2022-08-19T05:51:22;19.00;99.90
26224;DHT22;14820;48.682;8.890;2022-08-19T05:53:48;18.90;99.90
26224;DHT22;14820;48.682;8.890;2022-08-19T05:56:16;18.90;99.90
26224;DHT22;14820;48.682;8.890;2022-08-19T05:58:43;18.90;99.90
26224;DHT22;14820;48.682;8.890;2022-08-19T06:01:13;18.90;99.90
26224;DHT22;14820;48.682;8.890;2022-08-19T06:03:39;19.00;99.90
26224;DHT22;14820;48.682;8.890;2022-08-19T06:06:07;19.00;99.90
26224;DHT22;14820;48.682;8.890;2022-08-19T06:08:33;19.00;99.90
26224;DHT22;14820;48.682;8.890;2022-08-19T06:11:21;19.00;99.90
26224;DHT22;14820;48.682;8.890;2022-08-19T06:13:49;18.90;99.90
26224;DHT22;14820;48.682;8.890;2022-08-19T06:16:16;19.00;99.90
26224;DHT22;14820;48.682;8.890;2022-08-19T06:18:53;19.00;99.90
26224;DHT22;14820;48.682;8.890;2022-08-19T06:21:26;18.90;99.90
26224;DHT22;14820;48.682;8.890;2022-08-19T06:23:53;19.00;99.90
26224;DHT22;14820;48.682;8.890;2022-08-19T06:26:20;19.00;99.90
26224;DHT22;14820;48.682;8.890;2022-08-19T06:28:47;19.00;99.90
26224;DHT22;14820;48.682;8.890;2022-08-19T06:31:17;19.00;99.90
26224;DHT22;14820;48.682;8.890;2022-08-19T06:33:44;19.00;99.90
26224;DHT22;14820;48.682;8.890;2022-08-19T06:36:25;19.00;99.90
26224;DHT22;14820;48.682;8.890;2022-08-19T06:39:02;19.00;99.90
26224;DHT22;14820;48.682;8.890;2022-08-19T06:41:30;19.00;99.90
26224;DHT22;14820;48.682;8.890;2022-08-19T06:43:56;19.00;99.90
26224;DHT22;14820;48.682;8.890;2022-08-19T06:46:23;19.00;99.90
26224;DHT22;14820;48.682;8.890;2022-08-19T06:48:49;19.00;99.90
26224;DHT22;14820;48.682;8.890;2022-08-19T06:51:16;19.00;99.90
26224;DHT22;14820;48.682;8.890;2022-08-19T06:53:45;19.00;99.90
26224;DHT22;14820;48.682;8.890;2022-08-19T06:56:17;19.10;99.90
26224;DHT22;14820;48.682;8.890;2022-08-19T06:58:44;19.10;99.90
26224;DHT22;14820;48.682;8.890;2022-08-19T07:01:10;19.10;99.90
26224;DHT22;14820;48.682;8.890;2022-08-19T07:03:37;19.10;99.90
26224;DHT22;14820;48.682;8.890;2022-08-19T07:06:10;19.10;99.90
26224;DHT22;14820;48.682;8.890;2022-08-19T07:08:37;19.10;99.90
26224;DHT22;14820;48.682;8.890;2022-08-19T07:11:08;19.10;99.90
26224;DHT22;14820;48.682;8.890;2022-08-19T07:13:35;19.10;99.90
26224;DHT22;14820;48.682;8.890;2022-08-19T07:16:12;19.10;99.90
26224;DHT22;14820;48.682;8.890;2022-08-19T07:18:39;19.10;99.90
26224;DHT22;14820;48.682;8.890;2022-08-19T07:21:10;19.20;99.90
26224;DHT22;14820;48.682;8.890;2022-08-19T07:23:36;19.10;99.90
26224;DHT22;14820;48.682;8.890;2022-08-19T07:28:56;19.20;99.90
26224;DHT22;14820;48.682;8.890;2022-08-19T07:31:25;19.20;99.90
26224;DHT22;14820;48.682;8.890;2022-08-19T07:33:52;19.30;99.90
26224;DHT22;14820;48.682;8.890;2022-08-19T07:36:24;19.30;99.90
26224;DHT22;14820;48.682;8.890;2022-08-19T07:38:50;19.30;99.90
26224;DHT22;14820;48.682;8.890;2022-08-19T07:41:20;19.30;99.90
26224;DHT22;14820;48.682;8.890;2022-08-19T07:43:47;19.30;99.90
26224;DHT22;14820;48.682;8.890;2022-08-19T07:46:14;19.40;99.90
26224;DHT22;14820;48.682;8.890;2022-08-19T07:48:42;19.40;99.90
26224;DHT22;14820;48.682;8.890;2022-08-19T07:51:09;19.40;99.90
26224;DHT22;14820;48.682;8.890;2022-08-19T07:53:37;19.40;99.90
26224;DHT22;14820;48.682;8.890;2022-08-19T07:56:04;19.50;99.90
26224;DHT22;14820;48.682;8.890;2022-08-19T07:58:32;19.40;99.90
26224;DHT22;14820;48.682;8.890;2022-08-19T08:00:58;19.50;99.90
26224;DHT22;14820;48.682;8.890;2022-08-19T08:03:25;19.50;99.90
26224;DHT22;14820;48.682;8.890;2022-08-19T08:06:12;19.50;99.90
26224;DHT22;14820;48.682;8.890;2022-08-19T08:09:07;19.50;99.90
26224;DHT22;14820;48.682;8.890;2022-08-19T08:11:59;19.50;99.90
26224;DHT22;14820;48.682;8.890;2022-08-19T08:14:29;19.60;99.90
26224;DHT22;14820;48.682;8.890;2022-08-19T08:16:56;19.60;99.90
26224;DHT22;14820;48.682;8.890;2022-08-19T08:19:23;19.60;99.90
26224;DHT22;14820;48.682;8.890;2022-08-19T08:21:50;19.60;99.90
26224;DHT22;14820;48.682;8.890;2022-08-19T08:24:17;19.60;99.90
26224;DHT22;14820;48.682;8.890;2022-08-19T08:26:43;19.60;99.90
26224;DHT22;14820;48.682;8.890;2022-08-19T08:29:13;19.70;99.90
26224;DHT22;14820;48.682;8.890;2022-08-19T08:31:40;19.70;99.90
26224;DHT22;14820;48.682;8.890;2022-08-19T08:34:07;19.70;99.90
26224;DHT22;14820;48.682;8.890;2022-08-19T08:36:38;19.80;99.90
26224;DHT22;14820;48.682;8.890;2022-08-19T08:39:08;19.70;99.90
26224;DHT22;14820;48.682;8.890;2022-08-19T08:41:58;19.80;99.90
26224;DHT22;14820;48.682;8.890;2022-08-19T08:45:18;19.80;99.90
26224;DHT22;14820;48.682;8.890;2022-08-19T08:47:28;19.80;99.90
26224;DHT22;14820;48.682;8.890;2022-08-19T08:50:16;19.90;99.90
26224;DHT22;14820;48.682;8.890;2022-08-19T08:52:49;19.90;99.90
26224;DHT22;14820;48.682;8.890;2022-08-19T08:55:20;19.90;99.90
26224;DHT22;14820;48.682;8.890;2022-08-19T09:00:26;20.00;99.90
26224;DHT22;14820;48.682;8.890;2022-08-19T09:02:54;20.00;99.90
26224;DHT22;14820;48.682;8.890;2022-08-19T09:05:21;20.00;99.90
26224;DHT22;14820;48.682;8.890;2022-08-19T09:10:32;20.00;99.90
26224;DHT22;14820;48.682;8.890;2022-08-19T09:16:05;20.00;99.90
26224;DHT22;14820;48.682;8.890;2022-08-19T09:18:42;20.00;99.90
26224;DHT22;14820;48.682;8.890;2022-08-19T09:21:08;20.00;99.90
26224;DHT22;14820;48.682;8.890;2022-08-19T09:23:35;20.00;99.90
26224;DHT22;14820;48.682;8.890;2022-08-19T09:26:06;20.00;99.90
26224;DHT22;14820;48.682;8.890;2022-08-19T09:28:31;20.00;99.90
26224;DHT22;14820;48.682;8.890;2022-08-19T09:30:57;20.10;99.90
26224;DHT22;14820;48.682;8.890;2022-08-19T09:33:23;20.10;99.90
26224;DHT22;14820;48.682;8.890;2022-08-19T09:35:48;20.10;99.90
26224;DHT22;14820;48.682;8.890;2022-08-19T09:38:14;20.10;99.90
26224;DHT22;14820;48.682;8.890;2022-08-19T09:40:40;20.10;99.90
26224;DHT22;14820;48.682;8.890;2022-08-19T09:43:05;20.10;99.90
26224;DHT22;14820;48.682;8.890;2022-08-19T09:45:32;20.20;99.90
26224;DHT22;14820;48.682;8.890;2022-08-19T09:47:58;20.10;99.90
26224;DHT22;14820;48.682;8.890;2022-08-19T09:50:24;20.20;99.90
26224;DHT22;14820;48.682;8.890;2022-08-19T09:52:50;20.10;99.90
26224;DHT22;14820;48.682;8.890;2022-08-19T09:55:17;20.10;99.90
26224;DHT22;14820;48.682;8.890;2022-08-19T09:57:43;20.10;99.90
26224;DHT22;14820;48.682;8.890;2022-08-19T10:00:09;20.10;99.90
26224;DHT22;14820;48.682;8.890;2022-08-19T10:02:35;20.20;99.90
26224;DHT22;14820;48.682;8.890;2022-08-19T10:05:01;20.10;99.90
26224;DHT22;14820;48.682;8.890;2022-08-19T10:07:46;20.20;99.90
26224;DHT22;14820;48.682;8.890;2022-08-19T10:10:12;20.20;99.90
26224;DHT22;14820;48.682;8.890;2022-08-19T10:12:38;20.20;99.90
26224;DHT22;14820;48.682;8.890;2022-08-19T10:15:05;20.20;99.90
26224;DHT22;14820;48.682;8.890;2022-08-19T10:17:31;20.20;99.90
26224;DHT22;14820;48.682;8.890;2022-08-19T10:19:59;20.20;99.90
26224;DHT22;14820;48.682;8.890;2022-08-19T10:22:25;20.20;99.90
26224;DHT22;14820;48.682;8.890;2022-08-19T10:24:51;20.20;99.90
26224;DHT22;14820;48.682;8.890;2022-08-19T10:27:17;20.30;99.90
26224;DHT22;14820;48.682;8.890;2022-08-19T10:29:43;20.30;99.90
26224;DHT22;14820;48.682;8.890;2022-08-19T10:32:09;20.40;99.90
26224;DHT22;14820;48.682;8.890;2022-08-19T10:34:37;20.30;99.90
26224;DHT22;14820;48.682;8.890;2022-08-19T10:37:04;20.40;99.90
26224;DHT22;14820;48.682;8.890;2022-08-19T10:39:35;20.40;99.90
26224;DHT22;14820;48.682;8.890;2022-08-19T10:42:07;20.40;99.90
26224;DHT22;14820;48.682;8.890;2022-08-19T10:44:36;20.50;99.90
26224;DHT22;14820;48.682;8.890;2022-08-19T10:47:03;20.50;99.90
26224;DHT22;14820;48.682;8.890;2022-08-19T10:49:29;20.50;99.90
26224;DHT22;14820;48.682;8.890;2022-08-19T10:51:55;20.60;99.90
26224;DHT22;14820;48.682;8.890;2022-08-19T10:54:40;20.60;99.90
26224;DHT22;14820;48.682;8.890;2022-08-19T10:57:23;20.60;99.90
26224;DHT22;14820;48.682;8.890;2022-08-19T10:59:55;20.60;99.90
26224;DHT22;14820;48.682;8.890;2022-08-19T11:02:21;20.60;99.90
26224;DHT22;14820;48.682;8.890;2022-08-19T11:04:47;20.60;99.90
26224;DHT22;14820;48.682;8.890;2022-08-19T11:07:15;20.60;99.90
26224;DHT22;14820;48.682;8.890;2022-08-19T11:09:41;20.70;99.90
26224;DHT22;14820;48.682;8.890;2022-08-19T11:12:08;20.70;99.90
26224;DHT22;14820;48.682;8.890;2022-08-19T11:14:35;20.80;99.90
26224;DHT22;14820;48.682;8.890;2022-08-19T11:17:01;20.80;99.90
26224;DHT22;14820;48.682;8.890;2022-08-19T11:19:27;20.80;99.90
26224;DHT22;14820;48.682;8.890;2022-08-19T11:21:53;20.90;99.90
26224;DHT22;14820;48.682;8.890;2022-08-19T11:24:24;20.90;99.90
26224;DHT22;14820;48.682;8.890;2022-08-19T11:26:52;20.90;99.90
26224;DHT22;14820;48.682;8.890;2022-08-19T11:29:20;20.90;99.90
26224;DHT22;14820;48.682;8.890;2022-08-19T11:31:48;20.90;99.90
26224;DHT22;14820;48.682;8.890;2022-08-19T11:34:20;20.90;99.90
26224;DHT22;14820;48.682;8.890;2022-08-19T11:36:47;21.00;99.90
26224;DHT22;14820;48.682;8.890;2022-08-19T11:39:22;21.00;99.90
26224;DHT22;14820;48.682;8.890;2022-08-19T11:41:48;20.90;99.90
26224;DHT22;14820;48.682;8.890;2022-08-19T11:44:14;21.00;99.90
26224;DHT22;14820;48.682;8.890;2022-08-19T11:46:42;21.00;99.90
26224;DHT22;14820;48.682;8.890;2022-08-19T11:49:11;21.00;99.90
26224;DHT22;14820;48.682;8.890;2022-08-19T11:51:37;21.00;99.90
26224;DHT22;14820;48.682;8.890;2022-08-19T11:54:04;21.10;99.90
26224;DHT22;14820;48.682;8.890;2022-08-19T11:56:31;21.10;99.90
26224;DHT22;14820;48.682;8.890;2022-08-19T11:58:56;21.20;99.90
26224;DHT22;14820;48.682;8.890;2022-08-19T12:01:24;21.20;99.90
26224;DHT22;14820;48.682;8.890;2022-08-19T12:03:52;21.30;99.90
26224;DHT22;14820;48.682;8.890;2022-08-19T12:06:21;21.40;99.90
26224;DHT22;14820;48.682;8.890;2022-08-19T12:08:51;21.40;99.90
26224;DHT22;14820;48.682;8.890;2022-08-19T12:11:18;21.40;99.90
26224;DHT22;14820;48.682;8.890;2022-08-19T12:13:43;21.40;99.90
26224;DHT22;14820;48.682;8.890;2022-08-19T12:16:22;21.40;99.90
26224;DHT22;14820;48.682;8.890;2022-08-19T12:18:49;21.40;99.90
26224;DHT22;14820;48.682;8.890;2022-08-19T12:21:19;21.50;99.90
26224;DHT22;14820;48.682;8.890;2022-08-19T12:23:47;21.60;99.90
26224;DHT22;14820;48.682;8.890;2022-08-19T12:26:13;21.70;99.90
26224;DHT22;14820;48.682;8.890;2022-08-19T12:28:39;21.70;99.90
26224;DHT22;14820;48.682;8.890;2022-08-19T12:31:07;21.90;99.90
26224;DHT22;14820;48.682;8.890;2022-08-19T12:33:33;22.00;99.90
26224;DHT22;14820;48.682;8.890;2022-08-19T12:36:05;22.20;99.90
26224;DHT22;14820;48.682;8.890;2022-08-19T12:38:32;22.40;99.90
26224;DHT22;14820;48.682;8.890;2022-08-19T12:40:58;22.50;99.90
26224;DHT22;14820;48.682;8.890;2022-08-19T12:43:24;22.50;99.90
26224;DHT22;14820;48.682;8.890;2022-08-19T12:45:50;22.50;99.90
26224;DHT22;14820;48.682;8.890;2022-08-19T12:48:16;22.60;99.90
26224;DHT22;14820;48.682;8.890;2022-08-19T12:50:42;22.70;99.90
26224;DHT22;14820;48.682;8.890;2022-08-19T12:53:10;22.70;99.90
26224;DHT22;14820;48.682;8.890;2022-08-19T12:55:35;22.70;99.90
26224;DHT22;14820;48.682;8.890;2022-08-19T12:58:01;22.70;99.90
26224;DHT22;14820;48.682;8.890;2022-08-19T13:00:28;22.70;99.90
26224;DHT22;14820;48.682;8.890;2022-08-19T13:02:54;22.70;99.90
26224;DHT22;14820;48.682;8.890;2022-08-19T13:05:23;22.70;99.90
26224;DHT22;14820;48.682;8.890;2022-08-19T13:07:50;22.80;99.90
26224;DHT22;14820;48.682;8.890;2022-08-19T13:10:19;22.80;99.90
26224;DHT22;14820;48.682;8.890;2022-08-19T13:12:47;22.90;99.90
26224;DHT22;14820;48.682;8.890;2022-08-19T13:15:15;22.90;99.90
26224;DHT22;14820;48.682;8.890;2022-08-19T13:17:47;22.90;99.90
26224;DHT22;14820;48.682;8.890;2022-08-19T13:20:15;23.10;99.90
26224;DHT22;14820;48.682;8.890;2022-08-19T13:22:41;23.10;99.90
26224;DHT22;14820;48.682;8.890;2022-08-19T13:25:08;23.10;99.90
26224;DHT22;14820;48.682;8.890;2022-08-19T13:27:34;23.00;99.90
26224;DHT22;14820;48.682;8.890;2022-08-19T13:30:02;23.10;99.90
26224;DHT22;14820;48.682;8.890;2022-08-19T13:32:46;23.10;99.90
26224;DHT22;14820;48.682;8.890;2022-08-19T13:35:30;23.10;99.90
26224;DHT22;14820;48.682;8.890;2022-08-19T13:37:56;23.00;99.90
26224;DHT22;14820;48.682;8.890;2022-08-19T13:40:24;23.00;99.90
26224;DHT22;14820;48.682;8.890;2022-08-19T13:42:54;23.00;99.90
26224;DHT22;14820;48.682;8.890;2022-08-19T13:45:24;23.10;99.90
26224;DHT22;14820;48.682;8.890;2022-08-19T13:47:51;23.00;99.90
26224;DHT22;14820;48.682;8.890;2022-08-19T13:50:20;22.90;99.90
26224;DHT22;14820;48.682;8.890;2022-08-19T13:52:47;22.80;99.90
26224;DHT22;14820;48.682;8.890;2022-08-19T13:55:14;22.80;99.90
26224;DHT22;14820;48.682;8.890;2022-08-19T13:57:41;22.90;99.90
26224;DHT22;14820;48.682;8.890;2022-08-19T14:00:13;22.90;99.90
26224;DHT22;14820;48.682;8.890;2022-08-19T14:02:40;23.00;99.90
26224;DHT22;14820;48.682;8.890;2022-08-19T14:05:08;23.10;99.90
26224;DHT22;14820;48.682;8.890;2022-08-19T14:07:34;23.10;99.90
26224;DHT22;14820;48.682;8.890;2022-08-19T14:10:01;23.10;99.90
26224;DHT22;14820;48.682;8.890;2022-08-19T14:12:27;23.10;99.90
26224;DHT22;14820;48.682;8.890;2022-08-19T14:14:53;23.10;99.90
26224;DHT22;14820;48.682;8.890;2022-08-19T14:17:18;23.00;99.90
26224;DHT22;14820;48.682;8.890;2022-08-19T14:19:44;23.00;99.90
26224;DHT22;14820;48.682;8.890;2022-08-19T14:22:10;23.00;99.90
26224;DHT22;14820;48.682;8.890;2022-08-19T14:24:37;23.00;99.90
26224;DHT22;14820;48.682;8.890;2022-08-19T14:27:06;22.90;99.90
26224;DHT22;14820;48.682;8.890;2022-08-19T14:29:33;22.90;99.90
26224;DHT22;14820;48.682;8.890;2022-08-19T14:31:59;22.90;99.90
26224;DHT22;14820;48.682;8.890;2022-08-19T14:34:25;22.90;99.90
26224;DHT22;14820;48.682;8.890;2022-08-19T14:36:51;22.80;99.90
26224;DHT22;14820;48.682;8.890;2022-08-19T14:39:17;22.80;99.90
26224;DHT22;14820;48.682;8.890;2022-08-19T14:41:43;22.80;99.90
26224;DHT22;14820;48.682;8.890;2022-08-19T14:44:10;22.80;99.90
26224;DHT22;14820;48.682;8.890;2022-08-19T14:46:38;22.80;99.90
26224;DHT22;14820;48.682;8.890;2022-08-19T14:49:04;22.80;99.90
26224;DHT22;14820;48.682;8.890;2022-08-19T14:51:31;22.80;99.90
26224;DHT22;14820;48.682;8.890;2022-08-19T14:53:56;22.90;99.90
26224;DHT22;14820;48.682;8.890;2022-08-19T14:56:25;22.90;99.90
26224;DHT22;14820;48.682;8.890;2022-08-19T14:58:52;22.80;99.90
26224;DHT22;14820;48.682;8.890;2022-08-19T15:01:20;22.80;99.90
26224;DHT22;14820;48.682;8.890;2022-08-19T15:03:46;22.90;99.90
26224;DHT22;14820;48.682;8.890;2022-08-19T15:06:12;22.80;99.90
26224;DHT22;14820;48.682;8.890;2022-08-19T15:08:39;22.90;99.90
26224;DHT22;14820;48.682;8.890;2022-08-19T15:11:11;22.90;99.90
26224;DHT22;14820;48.682;8.890;2022-08-19T15:13:37;22.80;99.90
26224;DHT22;14820;48.682;8.890;2022-08-19T15:16:05;22.80;99.90
26224;DHT22;14820;48.682;8.890;2022-08-19T15:18:30;22.90;99.90
26224;DHT22;14820;48.682;8.890;2022-08-19T15:20:56;22.90;99.90
26224;DHT22;14820;48.682;8.890;2022-08-19T15:23:22;22.90;99.90
26224;DHT22;14820;48.682;8.890;2022-08-19T15:25:48;23.00;99.90
26224;DHT22;14820;48.682;8.890;2022-08-19T15:28:17;23.00;99.90
26224;DHT22;14820;48.682;8.890;2022-08-19T15:30:43;23.00;99.90
26224;DHT22;14820;48.682;8.890;2022-08-19T15:33:10;23.10;99.90
26224;DHT22;14820;48.682;8.890;2022-08-19T15:35:38;23.10;99.90
26224;DHT22;14820;48.682;8.890;2022-08-19T15:38:05;23.10;99.90
26224;DHT22;14820;48.682;8.890;2022-08-19T15:40:32;23.20;99.90
26224;DHT22;14820;48.682;8.890;2022-08-19T15:42:57;23.20;99.90
26224;DHT22;14820;48.682;8.890;2022-08-19T15:45:23;23.20;99.90
26224;DHT22;14820;48.682;8.890;2022-08-19T15:48:01;23.10;99.90
26224;DHT22;14820;48.682;8.890;2022-08-19T15:50:27;23.20;99.90
26224;DHT22;14820;48.682;8.890;2022-08-19T15:52:58;23.10;99.90
26224;DHT22;14820;48.682;8.890;2022-08-19T15:55:29;23.20;99.90